createdAt,value
2023-05-16T00:00:55.131Z,217.11
2023-05-16T00:01:55.230Z,217.91
2023-05-16T00:02:55.249Z,214.62
2023-05-16T00:03:55.428Z,214.79
2023-05-16T00:04:55.298Z,219.62
2023-05-16T00:05:55.347Z,217.24
2023-05-16T00:06:55.387Z,219.11
2023-05-16T00:07:55.459Z,215.01
2023-05-16T00:08:55.504Z,214.22
2023-05-16T00:09:55.533Z,217.50
2023-05-16T00:10:55.598Z,216.11
2023-05-16T00:11:55.618Z,218.11
2023-05-16T00:12:55.660Z,216.86
2023-05-16T00:13:55.717Z,217.46
2023-05-16T00:14:55.741Z,220.07
2023-05-16T00:15:55.785Z,217.63
2023-05-16T00:16:55.885Z,216.94
2023-05-16T00:17:55.881Z,214.62
2023-05-16T00:18:55.955Z,218.82
2023-05-16T00:19:55.956Z,213.85
2023-05-16T00:20:56.020Z,212.13
2023-05-16T00:21:56.008Z,212.34
2023-05-16T00:22:55.965Z,212.77
2023-05-16T00:23:55.977Z,212.50
2023-05-16T00:24:55.931Z,217.08
2023-05-16T00:25:55.928Z,213.74
2023-05-16T00:26:55.890Z,217.40
2023-05-16T00:27:55.886Z,217.08
2023-05-16T00:28:55.870Z,217.24
2023-05-16T00:29:55.906Z,218.12
2023-05-16T00:30:55.957Z,216.72
2023-05-16T00:31:56.068Z,216.57
2023-05-16T00:32:56.106Z,215.25
2023-05-16T00:33:56.101Z,216.23
2023-05-16T00:34:56.139Z,213.15
2023-05-16T00:35:56.138Z,213.29
2023-05-16T00:36:56.117Z,213.52
2023-05-16T00:37:56.095Z,213.35
2023-05-16T00:38:56.099Z,213.64
2023-05-16T00:39:56.074Z,213.93
2023-05-16T00:40:56.072Z,214.15
2023-05-16T00:41:56.044Z,216.62
2023-05-16T00:42:56.039Z,214.37
2023-05-16T00:43:56.022Z,212.91
2023-05-16T00:44:56.007Z,217.52
2023-05-16T00:45:56.031Z,218.28
2023-05-16T00:46:56.047Z,218.32
2023-05-16T00:47:56.119Z,213.51
2023-05-16T00:48:56.164Z,219.25
2023-05-16T00:49:56.197Z,216.79
2023-05-16T00:50:56.246Z,214.64
2023-05-16T00:51:56.304Z,217.82
2023-05-16T00:52:56.324Z,213.37
2023-05-16T00:53:56.399Z,214.66
2023-05-16T00:54:56.419Z,212.53
2023-05-16T00:55:56.476Z,218.09
2023-05-16T00:56:56.518Z,218.12
2023-05-16T00:57:56.565Z,214.23
2023-05-16T00:58:56.643Z,216.85
2023-05-16T00:59:56.654Z,213.63
2023-05-16T01:00:56.713Z,215.77
2023-05-16T01:01:56.852Z,215.47
2023-05-16T01:02:56.877Z,215.45
2023-05-16T01:03:56.932Z,212.56
2023-05-16T01:04:56.914Z,216.20
2023-05-16T01:05:56.953Z,214.02
2023-05-16T01:06:57.015Z,212.89
2023-05-16T01:07:57.036Z,213.17
2023-05-16T01:08:57.081Z,211.11
2023-05-16T01:09:57.129Z,215.63
2023-05-16T01:10:57.186Z,209.95
2023-05-16T01:11:57.231Z,215.40
2023-05-16T01:12:57.291Z,213.74
2023-05-16T01:13:57.312Z,214.79
2023-05-16T01:14:57.366Z,212.19
2023-05-16T01:15:57.451Z,212.92
2023-05-16T01:16:57.461Z,219.20
2023-05-16T01:17:57.616Z,216.00
2023-05-16T01:18:57.580Z,210.02
2023-05-16T01:19:57.587Z,213.90
2023-05-16T01:20:57.629Z,215.37
2023-05-16T01:21:57.670Z,214.38
2023-05-16T01:22:57.704Z,213.12
2023-05-16T01:23:57.734Z,211.81
2023-05-16T01:24:57.782Z,212.20
2023-05-16T01:25:57.831Z,215.14
2023-05-16T01:26:57.878Z,212.59
2023-05-16T01:27:57.907Z,209.73
2023-05-16T01:28:57.952Z,209.51
2023-05-16T01:29:57.981Z,216.66
2023-05-16T01:30:58.083Z,212.05
2023-05-16T01:31:58.095Z,215.88
2023-05-16T01:32:58.176Z,215.24
2023-05-16T01:33:58.160Z,211.60
2023-05-16T01:34:58.213Z,213.68
2023-05-16T01:35:58.277Z,213.04
2023-05-16T01:36:58.289Z,214.11
2023-05-16T01:37:58.288Z,213.39
2023-05-16T01:38:58.258Z,214.29
2023-05-16T01:39:58.253Z,212.99
2023-05-16T01:40:58.246Z,215.56
2023-05-16T01:41:58.233Z,216.52
2023-05-16T01:42:58.213Z,213.21
2023-05-16T01:43:58.209Z,212.66
2023-05-16T01:44:58.204Z,213.10
2023-05-16T01:45:58.195Z,214.70
2023-05-16T01:46:58.264Z,215.54
2023-05-16T01:47:58.319Z,211.39
2023-05-16T01:48:58.313Z,212.32
2023-05-16T01:49:58.360Z,211.29
2023-05-16T01:50:58.435Z,213.36
2023-05-16T01:51:58.470Z,211.89
2023-05-16T01:52:58.519Z,209.81
2023-05-16T01:53:58.578Z,213.64
2023-05-16T01:54:58.624Z,212.82
2023-05-16T01:55:58.665Z,213.51
2023-05-16T01:56:58.733Z,212.63
2023-05-16T01:57:58.770Z,211.70
2023-05-16T01:58:58.826Z,211.09
2023-05-16T01:59:58.866Z,213.87
2023-05-16T02:00:58.947Z,215.01
2023-05-16T02:01:58.971Z,212.98
2023-05-16T02:02:59.015Z,213.06
2023-05-16T02:03:59.101Z,211.45
2023-05-16T02:04:59.121Z,208.85
2023-05-16T02:05:59.116Z,209.06
2023-05-16T02:06:59.102Z,209.84
2023-05-16T02:07:59.082Z,209.97
2023-05-16T02:08:59.062Z,212.04
2023-05-16T02:09:59.094Z,211.58
2023-05-16T02:10:59.072Z,209.62
2023-05-16T02:11:59.044Z,212.19
2023-05-16T02:12:59.011Z,211.86
2023-05-16T02:13:59.041Z,209.70
2023-05-16T02:14:59.079Z,211.34
2023-05-16T02:15:59.142Z,208.24
2023-05-16T02:16:59.201Z,212.94
2023-05-16T02:17:59.298Z,207.97
2023-05-16T02:18:59.330Z,211.40
2023-05-16T02:19:59.331Z,207.28
2023-05-16T02:20:59.379Z,213.29
2023-05-16T02:21:59.433Z,210.23
2023-05-16T02:22:59.487Z,210.46
2023-05-16T02:23:59.536Z,210.35
2023-05-16T02:24:59.564Z,214.83
2023-05-16T02:25:59.641Z,210.23
2023-05-16T02:26:59.684Z,209.91
2023-05-16T02:27:59.745Z,209.06
2023-05-16T02:28:59.781Z,212.49
2023-05-16T02:29:59.847Z,210.34
2023-05-16T02:30:59.915Z,209.10
2023-05-16T02:31:59.954Z,211.37
2023-05-16T02:33:00.037Z,208.34
2023-05-16T02:34:00.078Z,214.24
2023-05-16T02:35:00.094Z,211.82
2023-05-16T02:36:00.149Z,207.37
2023-05-16T02:37:00.192Z,208.43
2023-05-16T02:38:00.250Z,213.27
2023-05-16T02:39:00.300Z,209.21
2023-05-16T02:40:00.362Z,213.02
2023-05-16T02:41:00.418Z,212.81
2023-05-16T02:42:00.473Z,211.33
2023-05-16T02:43:00.547Z,211.47
2023-05-16T02:44:00.598Z,207.09
2023-05-16T02:45:00.619Z,210.15
2023-05-16T02:46:00.728Z,207.43
2023-05-16T02:47:00.724Z,207.51
2023-05-16T02:48:00.820Z,209.79
2023-05-16T02:49:00.821Z,204.59
2023-05-16T02:50:00.909Z,202.42
2023-05-16T02:51:00.942Z,197.18
2023-05-16T02:52:01.012Z,188.40
2023-05-16T02:53:01.059Z,181.45
2023-05-16T02:54:01.135Z,170.33
2023-05-16T02:55:16.753Z,160.29
2023-05-16T02:57:20.457Z,25.00
2023-05-16T02:58:20.396Z,25.00
2023-05-16T02:59:20.366Z,25.00
2023-05-16T03:00:20.363Z,25.00
2023-05-16T03:01:20.385Z,25.00
2023-05-16T03:02:20.340Z,21.37
2023-05-16T03:03:20.318Z,25.00
2023-05-16T03:04:20.197Z,25.74
2023-05-16T03:05:20.174Z,27.28
2023-05-16T03:06:20.159Z,25.00
2023-05-16T03:07:20.111Z,25.00
2023-05-16T03:08:20.083Z,26.36
2023-05-16T03:09:20.047Z,25.31
2023-05-16T03:10:20.031Z,24.66
2023-05-16T03:11:19.978Z,25.36
2023-05-16T03:12:19.945Z,25.85
2023-05-16T03:13:19.927Z,25.96
2023-05-16T03:14:19.892Z,26.39
2023-05-16T03:15:19.872Z,25.00
2023-05-16T03:16:19.890Z,26.99
2023-05-16T03:17:19.875Z,28.31
2023-05-16T03:18:19.763Z,24.58
2023-05-16T03:19:19.912Z,25.00
2023-05-16T03:20:19.697Z,25.23
2023-05-16T03:21:19.659Z,25.89
2023-05-16T03:22:19.629Z,27.57
2023-05-16T03:23:19.576Z,25.96
2023-05-16T03:24:19.574Z,25.00
2023-05-16T03:25:19.500Z,25.00
2023-05-16T03:26:19.496Z,25.00
2023-05-16T03:27:19.474Z,25.01
2023-05-16T03:28:19.421Z,25.00
2023-05-16T03:29:19.379Z,25.10
2023-05-16T03:30:19.336Z,23.82
2023-05-16T03:31:19.331Z,17.59
2023-05-16T03:32:19.281Z,12.62
2023-05-16T03:33:19.226Z,13.08
2023-05-16T03:34:19.189Z,26.50
2023-05-16T03:35:19.152Z,25.00
2023-05-16T03:36:19.146Z,26.07
2023-05-16T03:37:19.081Z,25.84
2023-05-16T03:38:19.082Z,25.00
2023-05-16T03:39:19.100Z,25.46
2023-05-16T03:40:19.135Z,28.21
2023-05-16T03:41:19.168Z,25.28
2023-05-16T03:42:19.183Z,28.81
2023-05-16T03:43:19.203Z,27.97
2023-05-16T03:44:19.222Z,25.51
2023-05-16T03:45:19.266Z,26.42
2023-05-16T03:46:19.402Z,28.82
2023-05-16T03:47:19.306Z,29.26
2023-05-16T03:48:19.340Z,26.60
2023-05-16T03:49:19.334Z,25.51
2023-05-16T03:50:19.369Z,26.19
2023-05-16T03:51:19.391Z,26.77
2023-05-16T03:52:19.423Z,26.86
2023-05-16T03:53:19.465Z,31.38
2023-05-16T03:54:19.463Z,31.52
2023-05-16T03:55:19.489Z,26.65
2023-05-16T03:56:19.508Z,25.90
2023-05-16T03:57:19.536Z,27.13
2023-05-16T03:58:19.554Z,27.98
2023-05-16T03:59:19.603Z,25.74
2023-05-16T04:00:19.614Z,27.05
2023-05-16T04:01:19.651Z,25.78
2023-05-16T04:02:19.622Z,24.86
2023-05-16T04:03:19.673Z,24.46
2023-05-16T04:04:19.546Z,26.05
2023-05-16T04:05:19.549Z,22.89
2023-05-16T04:06:19.600Z,20.11
2023-05-16T04:07:20.810Z,25.32
2023-05-16T04:08:19.418Z,25.95
2023-05-16T04:09:19.377Z,26.04
2023-05-16T04:10:19.376Z,27.35
2023-05-16T04:11:19.348Z,27.67
2023-05-16T04:12:19.292Z,29.21
2023-05-16T04:13:19.341Z,28.78
2023-05-16T04:14:19.254Z,33.40
2023-05-16T04:15:19.208Z,31.90
2023-05-16T04:16:19.214Z,29.92
2023-05-16T04:17:19.157Z,34.13
2023-05-16T04:18:19.135Z,36.52
2023-05-16T04:19:19.436Z,34.84
2023-05-16T04:20:19.077Z,38.02
2023-05-16T04:21:19.076Z,41.84
2023-05-16T04:22:19.035Z,38.34
2023-05-16T04:23:19.018Z,40.57
2023-05-16T04:24:18.953Z,41.99
2023-05-16T04:25:18.936Z,42.23
2023-05-16T04:26:18.899Z,42.33
2023-05-16T04:27:18.867Z,42.56
2023-05-16T04:28:18.837Z,39.23
2023-05-16T04:29:18.817Z,41.93
2023-05-16T04:30:18.782Z,40.63
2023-05-16T04:31:18.762Z,40.70
2023-05-16T04:32:18.727Z,40.86
2023-05-16T04:33:18.698Z,40.50
2023-05-16T04:34:18.677Z,40.72
2023-05-16T04:35:18.636Z,43.51
2023-05-16T04:36:18.664Z,37.45
2023-05-16T04:37:18.582Z,38.82
2023-05-16T04:38:18.541Z,33.27
2023-05-16T04:39:18.532Z,35.57
2023-05-16T04:40:18.501Z,35.49
2023-05-16T04:41:18.478Z,35.62
2023-05-16T04:42:18.444Z,34.02
2023-05-16T04:43:18.394Z,30.83
2023-05-16T04:44:18.371Z,37.27
2023-05-16T04:45:18.332Z,37.38
2023-05-16T04:46:18.347Z,41.16
2023-05-16T04:47:18.277Z,39.59
2023-05-16T04:48:18.263Z,41.09
2023-05-16T04:49:18.220Z,39.38
2023-05-16T04:50:18.216Z,37.94
2023-05-16T04:51:18.175Z,36.07
2023-05-16T04:52:18.128Z,36.00
2023-05-16T04:53:18.116Z,37.64
2023-05-16T04:54:18.080Z,37.06
2023-05-16T04:55:18.075Z,34.20
2023-05-16T04:56:18.032Z,36.15
2023-05-16T04:57:18.004Z,33.93
2023-05-16T04:58:18.002Z,33.01
2023-05-16T04:59:17.957Z,34.92
2023-05-16T05:00:17.997Z,31.56
2023-05-16T05:01:17.978Z,33.17
2023-05-16T05:02:17.888Z,34.70
2023-05-16T05:03:17.925Z,34.51
2023-05-16T05:04:17.873Z,31.06
2023-05-16T05:05:17.849Z,29.38
2023-05-16T05:06:17.765Z,29.27
2023-05-16T05:07:17.737Z,30.40
2023-05-16T05:08:17.705Z,31.69
2023-05-16T05:09:17.703Z,29.39
2023-05-16T05:10:17.677Z,32.62
2023-05-16T05:11:17.677Z,26.92
2023-05-16T05:12:17.628Z,27.06
2023-05-16T05:13:17.592Z,25.30
2023-05-16T05:14:17.556Z,28.82
2023-05-16T05:15:17.553Z,28.09
2023-05-16T05:16:17.509Z,27.02
2023-05-16T05:17:17.500Z,25.87
2023-05-16T05:18:17.532Z,29.80
2023-05-16T05:19:17.463Z,27.44
2023-05-16T05:20:17.393Z,28.30
2023-05-16T05:21:17.385Z,29.10
2023-05-16T05:22:17.344Z,40.58
2023-05-16T05:23:17.298Z,59.59
2023-05-16T05:24:17.290Z,76.13
2023-05-16T05:25:17.292Z,85.59
2023-05-16T05:26:17.247Z,93.65
2023-05-16T05:27:17.212Z,103.94
2023-05-16T05:28:17.175Z,111.33
2023-05-16T05:29:17.141Z,121.96
2023-05-16T05:30:17.112Z,138.52
2023-05-16T05:31:17.118Z,147.20
2023-05-16T05:32:17.058Z,160.23
2023-05-16T05:33:17.106Z,173.28
2023-05-16T05:34:17.035Z,185.42
2023-05-16T05:35:17.033Z,199.66
2023-05-16T05:36:17.171Z,217.13
2023-05-16T05:37:17.081Z,236.53
2023-05-16T05:38:17.132Z,250.00
2023-05-16T05:39:17.208Z,250.60
2023-05-16T05:40:17.209Z,250.00
2023-05-16T05:41:17.252Z,249.44
2023-05-16T05:42:17.232Z,250.60
2023-05-16T05:43:17.267Z,248.77
2023-05-16T05:44:17.286Z,247.59
2023-05-16T05:45:17.283Z,244.88
2023-05-16T05:46:17.414Z,244.50
2023-05-16T05:47:17.234Z,241.04
2023-05-16T05:48:17.201Z,244.24
2023-05-16T05:49:17.209Z,245.79
2023-05-16T05:50:17.132Z,245.29
2023-05-16T05:51:17.127Z,248.10
2023-05-16T05:52:17.079Z,253.16
2023-05-16T05:53:17.024Z,245.76
2023-05-16T05:54:17.032Z,249.29
2023-05-16T05:55:16.988Z,256.90
2023-05-16T05:56:16.988Z,274.29
2023-05-16T05:57:16.927Z,284.66
2023-05-16T05:58:16.901Z,268.20
2023-05-16T05:59:16.866Z,254.07
2023-05-16T06:00:16.886Z,250.25
2023-05-16T06:01:16.876Z,249.13
2023-05-16T06:02:16.835Z,249.80
2023-05-16T06:03:16.832Z,249.29
2023-05-16T06:04:16.733Z,250.00
2023-05-16T06:05:16.855Z,249.49
2023-05-16T06:06:16.818Z,250.00
2023-05-16T06:07:16.766Z,250.31
2023-05-16T06:08:16.783Z,249.27
2023-05-16T06:09:16.786Z,249.43
2023-05-16T06:10:16.771Z,250.00
2023-05-16T06:11:16.741Z,250.07
2023-05-16T06:12:16.679Z,248.00
2023-05-16T06:13:16.648Z,247.95
2023-05-16T06:14:16.623Z,243.61
2023-05-16T06:15:16.595Z,241.58
2023-05-16T06:16:16.621Z,243.11
2023-05-16T06:17:16.602Z,243.26
2023-05-16T06:18:16.676Z,243.16
2023-05-16T06:19:16.612Z,243.21
2023-05-16T06:20:16.441Z,242.93
2023-05-16T06:21:16.441Z,248.79
2023-05-16T06:22:16.348Z,248.41
2023-05-16T06:23:16.324Z,249.38
2023-05-16T06:24:16.319Z,248.26
2023-05-16T06:25:16.428Z,248.72
2023-05-16T06:26:16.217Z,247.09
2023-05-16T06:27:16.164Z,239.44
2023-05-16T06:28:16.163Z,239.08
2023-05-16T06:29:16.108Z,236.10
2023-05-16T06:30:16.092Z,235.67
2023-05-16T06:31:16.083Z,236.20
2023-05-16T06:32:16.054Z,231.78
2023-05-16T06:33:16.115Z,227.28
2023-05-16T06:34:16.041Z,223.18
2023-05-16T06:35:16.080Z,226.05
2023-05-16T06:36:16.034Z,231.96
2023-05-16T06:37:16.082Z,229.31
2023-05-16T06:38:16.022Z,232.90
2023-05-16T06:39:16.032Z,232.87
2023-05-16T06:40:16.040Z,226.24
2023-05-16T06:41:16.055Z,224.99
2023-05-16T06:42:16.064Z,208.33
2023-05-16T06:43:16.071Z,187.25
2023-05-16T06:44:16.088Z,172.00
2023-05-16T06:45:16.077Z,154.56
2023-05-16T06:46:16.252Z,153.36
2023-05-16T06:47:16.152Z,154.20
2023-05-16T06:48:16.288Z,161.39
2023-05-16T06:49:16.201Z,169.33
2023-05-16T06:50:16.211Z,177.38
2023-05-16T06:51:16.339Z,187.48
2023-05-16T06:52:16.284Z,195.29
2023-05-16T06:53:16.351Z,203.49
2023-05-16T06:54:16.248Z,209.64
2023-05-16T06:55:16.244Z,217.52
2023-05-16T06:56:16.247Z,225.47
2023-05-16T06:57:16.264Z,231.13
2023-05-16T06:58:16.249Z,235.06
2023-05-16T06:59:16.224Z,239.93
2023-05-16T07:00:16.256Z,237.73
2023-05-16T07:01:16.398Z,240.36
2023-05-16T07:02:16.217Z,241.88
2023-05-16T07:03:16.227Z,245.96
2023-05-16T07:04:16.197Z,246.95
2023-05-16T07:05:16.062Z,234.37
2023-05-16T07:06:16.125Z,231.91
2023-05-16T07:07:16.035Z,235.16
2023-05-16T07:08:16.024Z,226.45
2023-05-16T07:09:15.978Z,222.42
2023-05-16T07:10:16.102Z,216.36
2023-05-16T07:11:15.930Z,210.49
2023-05-16T07:12:15.877Z,208.59
2023-05-16T07:13:15.869Z,200.59
2023-05-16T07:14:15.904Z,206.77
2023-05-16T07:15:15.819Z,206.50
2023-05-16T07:16:15.897Z,204.40
2023-05-16T07:17:15.784Z,199.51
2023-05-16T07:18:15.825Z,199.70
2023-05-16T07:19:15.696Z,200.70
2023-05-16T07:20:15.669Z,203.77
2023-05-16T07:21:15.692Z,205.23
2023-05-16T07:22:15.554Z,209.62
2023-05-16T07:23:15.576Z,210.07
2023-05-16T07:24:15.513Z,210.17
2023-05-16T07:25:15.449Z,205.64
2023-05-16T07:26:15.399Z,204.00
2023-05-16T07:27:15.349Z,205.40
2023-05-16T07:28:15.339Z,199.11
2023-05-16T07:29:15.268Z,189.19
2023-05-16T07:30:15.237Z,191.25
2023-05-16T07:31:15.283Z,192.15
2023-05-16T07:32:15.406Z,192.07
2023-05-16T07:33:15.139Z,201.74
2023-05-16T07:34:15.064Z,196.17
2023-05-16T07:35:15.031Z,200.72
2023-05-16T07:36:17.245Z,190.64
2023-05-16T07:37:15.148Z,171.91
2023-05-16T07:38:15.093Z,171.97
2023-05-16T07:39:15.073Z,172.70
2023-05-16T07:40:15.020Z,174.61
2023-05-16T07:41:14.997Z,163.14
2023-05-16T07:42:14.956Z,170.54
2023-05-16T07:43:14.909Z,168.51
2023-05-16T07:44:14.839Z,168.79
2023-05-16T07:45:14.825Z,171.07
2023-05-16T07:46:14.812Z,179.48
2023-05-16T07:47:14.744Z,195.39
2023-05-16T07:48:14.773Z,219.08
2023-05-16T07:49:14.651Z,225.47
2023-05-16T07:50:14.638Z,230.49
2023-05-16T07:51:14.619Z,235.57
2023-05-16T07:52:14.556Z,245.32
2023-05-16T07:53:14.519Z,246.39
2023-05-16T07:54:14.468Z,250.79
2023-05-16T07:55:14.439Z,249.37
2023-05-16T07:56:14.772Z,250.00
2023-05-16T07:57:14.366Z,245.89
2023-05-16T07:58:14.314Z,248.78
2023-05-16T07:59:14.343Z,248.66
2023-05-16T08:00:14.256Z,250.67
2023-05-16T08:01:14.258Z,247.70
2023-05-16T08:02:14.316Z,248.69
2023-05-16T08:03:14.286Z,249.29
2023-05-16T08:04:14.237Z,246.97
2023-05-16T08:05:14.280Z,243.27
2023-05-16T08:06:14.390Z,246.90
2023-05-16T08:07:14.305Z,247.53
2023-05-16T08:08:14.248Z,246.31
2023-05-16T08:09:14.220Z,244.88
2023-05-16T08:10:14.227Z,246.53
2023-05-16T08:11:14.228Z,247.55
2023-05-16T08:12:14.169Z,249.45
2023-05-16T08:13:14.142Z,245.62
2023-05-16T08:14:14.136Z,248.73
2023-05-16T08:15:14.048Z,245.37
2023-05-16T08:16:14.122Z,245.67
2023-05-16T08:17:14.012Z,243.11
2023-05-16T08:18:14.098Z,243.38
2023-05-16T08:19:14.017Z,242.95
2023-05-16T08:20:13.975Z,239.88
2023-05-16T08:21:13.912Z,230.70
2023-05-16T08:22:13.886Z,235.05
2023-05-16T08:23:13.898Z,231.69
2023-05-16T08:24:14.065Z,219.88
2023-05-16T08:25:13.930Z,206.83
2023-05-16T08:26:13.819Z,198.82
2023-05-16T08:27:13.748Z,191.68
2023-05-16T08:28:13.770Z,178.16
2023-05-16T08:29:13.728Z,170.28
2023-05-16T08:30:13.737Z,161.77
2023-05-16T08:31:13.805Z,156.04
2023-05-16T08:32:13.689Z,148.89
2023-05-16T08:33:13.747Z,145.31
2023-05-16T08:34:13.696Z,141.25
2023-05-16T08:35:13.717Z,133.42
2023-05-16T08:36:13.685Z,126.00
2023-05-16T08:37:14.839Z,122.55
2023-05-16T08:38:13.616Z,121.99
2023-05-16T08:39:13.590Z,118.31
2023-05-16T08:40:13.690Z,115.28
2023-05-16T08:41:13.597Z,114.50
2023-05-16T08:42:14.260Z,113.14
2023-05-16T08:43:13.551Z,108.67
2023-05-16T08:44:13.544Z,104.82
2023-05-16T08:45:13.529Z,106.65
2023-05-16T08:46:13.568Z,102.45
2023-05-16T08:47:13.611Z,95.13
2023-05-16T08:48:13.542Z,89.71
2023-05-16T08:49:13.568Z,85.71
2023-05-16T08:50:13.593Z,87.99
2023-05-16T08:51:13.595Z,99.99
2023-05-16T08:52:13.634Z,104.80
2023-05-16T08:53:13.616Z,109.99
2023-05-16T08:54:13.713Z,122.14
2023-05-16T08:55:14.299Z,130.19
2023-05-16T08:56:13.810Z,138.28
2023-05-16T08:57:13.640Z,143.41
2023-05-16T08:58:13.647Z,150.65
2023-05-16T08:59:13.652Z,156.17
2023-05-16T09:00:13.648Z,159.93
2023-05-16T09:01:13.667Z,164.96
2023-05-16T09:02:13.620Z,170.84
2023-05-16T09:03:13.637Z,173.55
2023-05-16T09:04:13.603Z,176.42
2023-05-16T09:05:13.555Z,180.28
2023-05-16T09:06:13.561Z,181.49
2023-05-16T09:07:13.564Z,189.44
2023-05-16T09:08:13.520Z,190.84
2023-05-16T09:09:13.510Z,193.62
2023-05-16T09:10:13.560Z,201.23
2023-05-16T09:11:13.521Z,202.40
2023-05-16T09:12:13.431Z,204.97
2023-05-16T09:13:13.393Z,208.16
2023-05-16T09:14:13.358Z,211.11
2023-05-16T09:15:13.370Z,211.92
2023-05-16T09:16:13.388Z,218.92
2023-05-16T09:17:13.317Z,220.66
2023-05-16T09:18:13.295Z,224.96
2023-05-16T09:19:13.286Z,223.25
2023-05-16T09:20:13.199Z,226.17
2023-05-16T09:21:13.249Z,226.97
2023-05-16T09:22:13.149Z,229.12
2023-05-16T09:23:13.157Z,234.13
2023-05-16T09:24:13.160Z,234.97
2023-05-16T09:25:27.905Z,238.63
2023-05-16T09:26:14.101Z,238.76
2023-05-16T09:27:13.013Z,239.02
2023-05-16T09:28:12.980Z,238.86
2023-05-16T09:29:13.040Z,241.30
2023-05-16T09:30:12.930Z,239.05
2023-05-16T09:31:12.903Z,240.42
2023-05-16T09:32:12.842Z,241.69
2023-05-16T09:33:12.843Z,245.27
2023-05-16T09:34:12.797Z,250.31
2023-05-16T09:35:12.718Z,247.67
2023-05-16T09:36:12.707Z,246.59
2023-05-16T09:37:12.638Z,249.40
2023-05-16T09:38:12.781Z,249.30
2023-05-16T09:39:12.605Z,246.47
2023-05-16T09:40:13.597Z,250.01
2023-05-16T09:41:12.541Z,248.62
2023-05-16T09:42:12.468Z,248.46
2023-05-16T09:43:12.471Z,247.54
2023-05-16T09:44:12.437Z,247.37
2023-05-16T09:45:12.357Z,248.89
2023-05-16T09:46:12.375Z,247.98
2023-05-16T09:47:12.291Z,247.65
2023-05-16T09:48:12.296Z,249.62
2023-05-16T09:49:12.212Z,248.24
2023-05-16T09:50:12.231Z,245.29
2023-05-16T09:51:12.172Z,248.10
2023-05-16T09:52:12.153Z,246.88
2023-05-16T09:53:12.138Z,243.70
2023-05-16T09:54:12.141Z,247.15
2023-05-16T09:55:12.130Z,244.87
2023-05-16T09:56:12.094Z,244.12
2023-05-16T09:57:12.060Z,244.87
2023-05-16T09:58:12.055Z,242.10
2023-05-16T09:59:12.051Z,240.03
2023-05-16T10:00:12.020Z,239.60
2023-05-16T10:01:12.010Z,235.62
2023-05-16T10:02:12.002Z,235.84
2023-05-16T10:03:12.013Z,234.21
2023-05-16T10:04:11.963Z,230.03
2023-05-16T10:05:11.888Z,230.10
2023-05-16T10:06:11.876Z,228.82
2023-05-16T10:07:11.819Z,228.26
2023-05-16T10:08:11.793Z,226.66
2023-05-16T10:09:11.770Z,216.83
2023-05-16T10:10:11.742Z,223.35
2023-05-16T10:11:11.769Z,219.28
2023-05-16T10:12:11.770Z,221.18
2023-05-16T10:13:11.637Z,216.30
2023-05-16T10:14:11.662Z,219.37
2023-05-16T10:15:11.595Z,219.43
2023-05-16T10:16:11.612Z,218.30
2023-05-16T10:17:11.483Z,218.08
2023-05-16T10:18:11.514Z,216.39
2023-05-16T10:19:11.462Z,215.31
2023-05-16T10:20:11.367Z,217.49
2023-05-16T10:21:12.065Z,217.71
2023-05-16T10:22:11.217Z,219.50
2023-05-16T10:23:11.189Z,219.70
2023-05-16T10:24:11.154Z,219.49
2023-05-16T10:25:11.110Z,218.59
2023-05-16T10:26:11.075Z,214.78
2023-05-16T10:27:11.036Z,220.43
2023-05-16T10:28:11.007Z,217.24
2023-05-16T10:29:10.937Z,219.54
2023-05-16T10:30:10.925Z,219.65
2023-05-16T10:31:10.857Z,219.81
2023-05-16T10:32:10.877Z,220.78
2023-05-16T10:33:10.791Z,221.44
2023-05-16T10:34:10.735Z,221.44
2023-05-16T10:35:10.696Z,222.01
2023-05-16T10:36:10.643Z,225.85
2023-05-16T10:37:10.572Z,225.76
2023-05-16T10:38:10.542Z,226.14
2023-05-16T10:39:10.482Z,227.24
2023-05-16T10:40:10.449Z,228.38
2023-05-16T10:41:10.387Z,229.42
2023-05-16T10:42:10.363Z,227.64
2023-05-16T10:43:10.301Z,228.47
2023-05-16T10:44:10.264Z,227.31
2023-05-16T10:45:10.212Z,227.63
2023-05-16T10:46:10.313Z,229.97
2023-05-16T10:47:10.189Z,231.83
2023-05-16T10:48:10.194Z,233.50
2023-05-16T10:49:10.077Z,236.73
2023-05-16T10:50:10.143Z,236.30
2023-05-16T10:51:10.080Z,237.60
2023-05-16T10:52:10.085Z,238.61
2023-05-16T10:53:10.155Z,238.63
2023-05-16T10:54:10.166Z,241.86
2023-05-16T10:55:10.162Z,239.08
2023-05-16T10:56:10.190Z,242.67
2023-05-16T10:57:10.222Z,242.48
2023-05-16T10:58:10.181Z,242.63
2023-05-16T10:59:10.117Z,243.31
2023-05-16T11:00:10.242Z,245.37
2023-05-16T11:01:10.134Z,246.91
2023-05-16T11:02:10.069Z,242.74
2023-05-16T11:03:10.029Z,243.71
2023-05-16T11:04:09.919Z,245.78
2023-05-16T11:05:09.885Z,247.10
2023-05-16T11:06:09.838Z,253.37
2023-05-16T11:07:09.796Z,245.55
2023-05-16T11:08:09.784Z,246.35
2023-05-16T11:09:09.686Z,248.59
2023-05-16T11:10:09.685Z,248.71
2023-05-16T11:11:09.602Z,248.73
2023-05-16T11:12:09.560Z,249.16
2023-05-16T11:13:09.507Z,249.45
2023-05-16T11:14:09.509Z,251.80
2023-05-16T11:15:09.466Z,248.47
2023-05-16T11:16:09.425Z,244.01
2023-05-16T11:17:09.444Z,244.51
2023-05-16T11:18:09.387Z,246.23
2023-05-16T11:19:09.352Z,250.60
2023-05-16T11:20:09.316Z,248.34
2023-05-16T11:21:09.394Z,249.18
2023-05-16T11:22:09.374Z,247.64
2023-05-16T11:23:09.381Z,251.28
2023-05-16T11:24:09.440Z,249.19
2023-05-16T11:25:09.462Z,250.00
2023-05-16T11:26:09.446Z,248.89
2023-05-16T11:27:09.455Z,249.25
2023-05-16T11:28:09.487Z,248.31
2023-05-16T11:29:09.475Z,247.28
2023-05-16T11:30:09.577Z,249.64
2023-05-16T11:31:09.601Z,247.22
2023-05-16T11:32:09.556Z,250.00
2023-05-16T11:33:09.636Z,247.60
2023-05-16T11:34:09.625Z,246.76
2023-05-16T11:35:10.993Z,246.83
2023-05-16T11:37:09.697Z,246.97
2023-05-16T11:38:09.661Z,246.83
2023-05-16T11:39:09.705Z,245.07
2023-05-16T11:40:09.594Z,247.36
2023-05-16T11:41:09.552Z,240.19
2023-05-16T11:42:09.510Z,240.82
2023-05-16T11:43:09.484Z,237.38
2023-05-16T11:44:09.439Z,236.64
2023-05-16T11:45:09.458Z,235.39
2023-05-16T11:46:09.430Z,234.82
2023-05-16T11:47:09.467Z,231.73
2023-05-16T11:48:09.395Z,228.92
2023-05-16T11:49:09.266Z,229.22
2023-05-16T11:50:09.234Z,230.14
2023-05-16T11:51:09.198Z,229.86
2023-05-16T11:52:09.164Z,229.30
2023-05-16T11:53:09.140Z,229.88
2023-05-16T11:54:09.112Z,227.87
2023-05-16T11:55:09.064Z,227.36
2023-05-16T11:56:09.029Z,227.31
2023-05-16T11:57:08.992Z,226.98
2023-05-16T11:58:08.971Z,224.61
2023-05-16T11:59:08.919Z,225.24
2023-05-16T12:00:08.888Z,222.40
2023-05-16T12:01:08.855Z,224.05
2023-05-16T12:02:08.814Z,223.67
2023-05-16T12:03:08.842Z,229.65
2023-05-16T12:04:08.885Z,233.14
2023-05-16T12:05:08.788Z,239.20
2023-05-16T12:06:08.710Z,246.32
2023-05-16T12:07:08.668Z,250.00
2023-05-16T12:08:08.626Z,250.00
2023-05-16T12:09:08.589Z,250.47
2023-05-16T12:10:08.548Z,249.38
2023-05-16T12:11:08.517Z,247.68
2023-05-16T12:12:08.491Z,247.77
2023-05-16T12:13:08.457Z,247.82
2023-05-16T12:14:08.431Z,248.36
2023-05-16T12:15:08.365Z,249.42
2023-05-16T12:16:08.352Z,247.79
2023-05-16T12:17:08.344Z,247.99
2023-05-16T12:18:08.289Z,248.10
2023-05-16T12:19:08.415Z,248.20
2023-05-16T12:20:08.261Z,248.31
2023-05-16T12:21:08.162Z,245.41
2023-05-16T12:22:08.129Z,247.99
2023-05-16T12:23:08.074Z,246.39
2023-05-16T12:24:08.046Z,244.95
2023-05-16T12:25:08.041Z,245.50
2023-05-16T12:26:07.975Z,242.19
2023-05-16T12:27:07.953Z,243.42
2023-05-16T12:28:07.937Z,241.58
2023-05-16T12:29:07.914Z,241.58
2023-05-16T12:30:07.917Z,242.50
2023-05-16T12:31:11.238Z,239.98
2023-05-16T12:32:08.913Z,239.99
2023-05-16T12:33:08.402Z,237.55
2023-05-16T12:34:07.776Z,235.89
2023-05-16T12:35:07.755Z,234.55
2023-05-16T12:36:08.044Z,235.23